Housatonic River @ Stevenson, Ct

Housatonic River at Stevenson
 Total Drainage Area: 1,545 sq. miles 
 Drainage Area Controlled by Corps Dams: 0 sq. miles (0%) 
 Warning Flow/Stage: 13,700 cfs / 11.0 feet 
 Flood Flow/Stage: 27,200 cfs / 15.0 feet 
Date Time
(Eastern)
Stage
(ft)
Flow
(cfs)
CSM
(cfs / sq. mi.)
May-29 05:30 pm 5.73 2,985 1.9
May-29 04:30 pm 2.54 484 .3
May-29 03:30 pm 2.54 484 .3
May-29 02:30 pm 2.55 488 .3
May-29 01:30 pm 2.55 488 .3
May-29 12:30 pm 2.57 495 .3
May-29 11:30 am 2.76 565 .4
May-29 10:30 am 4.78 1,908 1.2
May-29 09:30 am 6.73 4,425 2.9
May-29 08:30 am 6.72 4,410 2.9
May-29 07:30 am 6.71 4,395 2.8
May-29 06:30 am 5.57 2,783 1.8
May-29 05:30 am 2.56 491 .3
May-29 04:30 am 2.56 491 .3
May-29 03:30 am 2.56 491 .3
May-29 02:30 am 2.57 495 .3
May-29 01:30 am 2.58 498 .3
May-29 12:30 am 2.60 505 .3
May-28 11:30 pm 2.96 651 .4
May-28 10:30 pm 6.30 3,773 2.4
May-28 09:30 pm 6.72 4,410 2.9
May-28 08:30 pm 6.70 4,380 2.8
May-28 07:30 pm 6.70 4,380 2.8
May-28 06:30 pm 6.71 4,395 2.8
May-28 05:30 pm 6.68 4,348 2.8
Report Generated May 29, 2024 10:03 pm